Time;durP1;ratioP1;P1;durP2;ratioP2;P2;SDS_P1;SDS_P2;PMS_P1;PMS_P2;Temp;Humidity;BMP_temperature;BMP_pressure;BME280_temperature;BME280_humidity;BME280_pressure;Samples;Min_cycle;Max_cycle;Signal;HPM_P1;HPM_P2
2022/08/18 00:03:31;;;;;;;13.18;10.35;;;;;;;18.87;76.38;97379.06;10254772;28;20136;-55
2022/08/18 00:08:30;;;;;;;14.77;11.70;;;;;;;18.86;76.53;97380.84;10264924;28;20057;-55
2022/08/18 00:13:29;;;;;;;17.00;11.63;;;;;;;18.75;76.96;97386.50;10294381;28;20049;-56
2022/08/18 00:18:28;;;;;;;17.55;12.15;;;;;;;18.52;78.06;97376.88;10293922;28;20403;-56
2022/08/18 00:23:31;;;;;;;17.08;12.25;;;;;;;18.54;78.00;97389.97;10293538;28;20038;-56
2022/08/18 00:28:30;;;;;;;16.65;11.55;;;;;;;18.54;77.72;97389.97;10293904;28;20112;-55
2022/08/18 00:33:29;;;;;;;15.23;11.23;;;;;;;18.50;77.38;97394.50;10293162;28;20080;-56
2022/08/18 00:38:28;;;;;;;17.67;11.60;;;;;;;18.44;77.49;97401.75;10293066;28;20033;-56
2022/08/18 00:43:42;;;;;;;14.15;11.05;;;;;;;18.17;78.19;97397.47;10256887;28;20030;-56
2022/08/18 00:48:41;;;;;;;14.35;10.32;;;;;;;18.11;79.07;97397.69;10252538;28;20145;-56
2022/08/18 00:53:52;;;;;;;11.82;10.63;;;;;;;17.99;79.11;97392.91;10252662;28;20525;-56
2022/08/18 00:58:56;;;;;;;13.32;10.38;;;;;;;17.88;79.81;97395.91;10252052;28;20062;-56
2022/08/18 01:04:04;;;;;;;15.85;11.43;;;;;;;17.88;79.64;97408.19;10252105;28;20077;-56
2022/08/18 01:09:03;;;;;;;13.98;11.32;;;;;;;17.80;80.11;97402.34;10266770;28;20050;-56
2022/08/18 01:14:04;;;;;;;14.30;11.15;;;;;;;17.72;80.28;97406.06;10292511;28;20030;-56
2022/08/18 01:29:49;;;;;;;16.25;11.25;;;;;;;17.59;81.62;97412.66;10292171;28;20065;-56
2022/08/18 01:34:50;;;;;;;13.23;11.60;;;;;;;17.50;81.92;97405.13;10290590;28;20483;-56
2022/08/18 01:39:50;;;;;;;14.38;12.45;;;;;;;17.43;81.97;97403.63;10285308;28;20061;-56
2022/08/18 01:44:52;;;;;;;16.48;11.88;;;;;;;17.38;82.31;97411.63;10251225;28;20431;-56
2022/08/18 01:49:52;;;;;;;17.45;12.25;;;;;;;17.37;82.37;97399.41;10249868;28;20080;-56
2022/08/18 01:54:51;;;;;;;18.35;12.35;;;;;;;17.38;82.31;97392.38;10250666;28;20080;-56
2022/08/18 01:59:50;;;;;;;16.48;12.77;;;;;;;17.33;82.89;97397.78;10250367;28;20073;-56
2022/08/18 02:05:01;;;;;;;18.02;12.15;;;;;;;17.31;82.75;97394.41;10250009;28;20467;-56
2022/08/18 02:10:00;;;;;;;17.80;15.50;;;;;;;17.30;83.24;97397.91;10272752;28;20081;-56
2022/08/18 02:14:59;;;;;;;17.52;14.57;;;;;;;17.28;83.13;97405.81;10289288;28;20069;-55
2022/08/18 02:19:58;;;;;;;19.70;14.68;;;;;;;17.26;83.37;97402.41;10289361;28;20112;-56
2022/08/18 02:24:57;;;;;;;16.95;13.98;;;;;;;17.23;83.56;97397.25;10289765;28;20085;-56
2022/08/18 02:29:59;;;;;;;19.00;13.30;;;;;;;17.18;83.61;97393.94;10289526;28;20041;-56
2022/08/18 02:34:59;;;;;;;18.27;13.73;;;;;;;17.18;83.83;97399.16;10288444;28;20146;-56
2022/08/18 02:39:58;;;;;;;20.48;13.93;;;;;;;17.20;83.66;97402.59;10284107;28;20069;-56
2022/08/18 02:44:57;;;;;;;17.60;13.18;;;;;;;17.19;83.84;97395.66;10248469;28;20488;-56
2022/08/18 02:49:56;;;;;;;18.92;12.93;;;;;;;17.08;84.31;97401.25;10249238;28;20428;-56
2022/08/18 02:54:55;;;;;;;21.88;13.68;;;;;;;17.04;84.83;97411.88;10248787;28;20523;-56
2022/08/18 02:59:54;;;;;;;17.23;14.00;;;;;;;16.97;85.01;97410.38;10286031;28;20876;-56
2022/08/18 03:04:53;;;;;;;;;;;;;;;16.90;85.13;97420.19;10289290;28;20494;-56
2022/08/18 03:09:52;;;;;;;22.42;14.88;;;;;;;16.84;85.36;97420.38;10285954;28;19948;-56
2022/08/18 03:14:51;;;;;;;;;;;;;;;16.75;85.49;97418.88;10289309;28;20064;-56
2022/08/18 03:19:49;;;;;;;20.80;15.48;;;;;;;16.64;86.45;97429.69;10288595;28;19949;-55
2022/08/18 03:24:48;;;;;;;;;;;;;;;16.55;86.99;97431.72;10288365;28;20032;-56
2022/08/18 03:29:47;;;;;;;18.23;14.57;;;;;;;16.51;86.51;97426.59;10293819;28;19909;-56
2022/08/18 03:34:46;;;;;;;;;;;;;;;16.39;86.88;97432.16;10296235;28;20136;-56
2022/08/18 03:39:45;;;;;;;18.77;14.52;;;;;;;16.34;87.07;97438.47;10294847;28;19921;-55
2022/08/18 03:44:44;;;;;;;;;;;;;;;16.32;86.97;97433.25;10295299;28;20079;-55
2022/08/18 03:49:44;;;;;;;19.92;14.68;;;;;;;16.34;86.69;97435.84;10260374;28;19910;-55
2022/08/18 03:54:43;;;;;;;20.05;15.52;;;;;;;16.27;87.03;97441.25;10255487;28;20065;-56
2022/08/18 03:59:42;;;;;;;;;;;;;;;16.27;87.26;97445.63;10255599;28;20042;-56
2022/08/18 04:04:41;;;;;;;21.30;15.57;;;;;;;16.23;87.47;97447.50;10253220;28;19921;-55
2022/08/18 04:09:41;;;;;;;;;;;;;;;16.28;87.50;97452.59;10274665;28;20397;-56
2022/08/18 04:14:42;;;;;;;22.08;17.25;;;;;;;16.35;87.00;97443.66;10293265;28;19953;-55
2022/08/18 04:19:41;;;;;;;20.17;16.55;;;;;;;16.46;86.98;97449.41;10292715;28;20077;-56
2022/08/18 04:24:41;;;;;;;;;;;;;;;16.54;86.86;97459.69;10293754;28;20072;-56
2022/08/18 04:29:40;;;;;;;23.90;15.98;;;;;;;16.65;86.69;97467.22;10291946;28;19955;-55
2022/08/18 04:34:38;;;;;;;;;;;;;;;16.71;86.58;97473.13;10292742;28;20077;-55
2022/08/18 04:39:37;;;;;;;22.83;15.67;;;;;;;16.74;86.37;97461.69;10029950;28;19926;-56
2022/08/18 04:44:36;;;;;;;;;;;;;;;16.91;85.83;97469.94;10218927;28;20455;-56
2022/08/18 04:49:36;;;;;;;18.27;15.27;;;;;;;16.91;85.67;97448.09;10280583;28;19971;-55
2022/08/18 04:54:37;;;;;;;18.80;15.63;;;;;;;17.05;85.66;97464.28;10289957;28;20053;-56
2022/08/18 04:59:39;;;;;;;21.08;15.90;;;;;;;17.14;85.61;97455.25;10292243;28;20822;-58
2022/08/18 05:04:41;;;;;;;125.43;31.60;;;;;;;17.40;85.09;97456.16;10291615;28;20500;-56
2022/08/18 05:09:41;;;;;;;110.30;26.30;;;;;;;17.57;84.96;97459.09;10290279;28;20471;-57
2022/08/18 05:14:43;;;;;;;26.95;17.23;;;;;;;17.53;84.65;97437.31;10290950;28;20077;-57
2022/08/18 05:19:43;;;;;;;26.40;17.30;;;;;;;17.89;84.85;97462.38;10290502;28;20133;-56
2022/08/18 05:24:42;;;;;;;22.58;17.45;;;;;;;18.13;84.27;97471.19;10287059;28;20065;-57
2022/08/18 05:29:41;;;;;;;22.42;17.35;;;;;;;18.24;84.06;97455.03;10290574;28;20484;-55
2022/08/18 05:34:40;;;;;;;20.55;16.80;;;;;;;18.49;83.44;97470.75;10290215;28;20455;-55
2022/08/18 05:39:59;;;;;;;23.05;16.95;;;;;;;18.70;82.13;97469.09;10290503;28;20129;-55
2022/08/18 05:44:59;;;;;;;20.95;16.90;;;;;;;18.88;81.41;97476.28;10286549;28;20073;-55
2022/08/18 05:50:12;;;;;;;23.33;18.50;;;;;;;19.11;80.47;97472.75;10287069;28;20061;-55
2022/08/18 06:00:42;;;;;;;20.05;16.42;;;;;;;19.61;78.23;97476.91;10287216;28;20065;-55
2022/08/18 06:05:56;;;;;;;21.58;16.17;;;;;;;19.85;77.40;97472.38;10290119;28;20436;-55
2022/08/18 06:10:55;;;;;;;23.77;16.35;;;;;;;20.12;76.35;97470.31;10289968;28;20069;-55
2022/08/18 06:16:26;;;;;;;23.50;17.90;;;;;;;20.37;75.40;97463.94;10288296;28;20484;-55
2022/08/18 06:21:25;;;;;;;22.52;16.60;;;;;;;20.68;74.71;97466.06;10289779;28;20508;-55
2022/08/18 06:26:36;;;;;;;16.38;13.80;;;;;;;20.96;72.59;97457.72;10289568;28;20530;-55
2022/08/18 06:31:50;;;;;;;18.83;13.70;;;;;;;21.10;69.64;97454.41;10290142;28;20104;-56
2022/08/18 06:36:59;;;;;;;18.30;14.63;;;;;;;21.40;69.03;97467.91;10288621;28;20076;-56
2022/08/18 06:41:59;;;;;;;17.60;12.40;;;;;;;21.63;68.22;97458.00;10288443;28;20064;-57
2022/08/18 06:47:10;;;;;;;16.58;12.80;;;;;;;21.96;66.81;97458.91;10292521;28;20061;-57
2022/08/18 06:52:28;;;;;;;16.73;12.93;;;;;;;22.23;65.78;97461.09;10288538;28;20060;-56
2022/08/18 06:57:53;;;;;;;14.50;12.82;;;;;;;22.55;64.78;97451.47;10289368;28;20066;-58
2022/08/18 07:03:00;;;;;;;13.55;11.13;;;;;;;22.84;64.46;97443.75;10292785;28;20057;-58
2022/08/18 07:08:03;;;;;;;21.38;9.95;;;;;;;23.15;62.38;97436.72;10298331;28;20057;-56
2022/08/18 07:13:28;;;;;;;17.23;13.15;;;;;;;23.45;61.07;97436.75;10298312;28;20077;-56
2022/08/18 07:18:28;;;;;;;15.60;11.68;;;;;;;23.73;59.89;97432.50;10293858;28;20452;-56
2022/08/18 07:23:30;;;;;;;19.85;11.18;;;;;;;24.06;59.24;97422.53;10297697;28;20073;-56
2022/08/18 07:28:40;;;;;;;16.17;9.80;;;;;;;24.38;58.25;97418.84;10297238;28;20065;-57
2022/08/18 07:33:42;;;;;;;12.88;9.68;;;;;;;24.69;57.65;97416.00;10297578;28;20533;-57
2022/08/18 07:38:50;;;;;;;23.10;10.95;;;;;;;25.05;56.38;97413.75;10296202;28;20062;-56
2022/08/18 07:43:55;;;;;;;13.17;9.90;;;;;;;25.42;55.32;97400.69;10291444;28;20064;-56
2022/08/18 07:48:57;;;;;;;10.90;7.75;;;;;;;25.77;51.97;97408.13;10296934;28;20292;-56
2022/08/18 07:54:28;;;;;;;10.30;6.90;;;;;;;26.21;49.26;97410.41;10297271;28;20064;-56
2022/08/18 07:59:39;;;;;;;8.85;6.57;;;;;;;26.67;47.24;97406.28;10250455;28;20483;-56
2022/08/18 08:04:46;;;;;;;10.32;6.45;;;;;;;27.00;46.00;97403.00;10270271;28;20072;-56
2022/08/18 08:10:17;;;;;;;11.52;6.28;;;;;;;27.33;45.29;97401.47;10296650;28;20060;-56
2022/08/18 08:15:41;;;;;;;11.10;6.50;;;;;;;27.67;44.37;97399.81;10292256;28;20089;-56
2022/08/18 08:21:03;;;;;;;7.22;5.85;;;;;;;27.93;41.26;97407.63;10295917;28;20065;-56
2022/08/18 08:26:02;;;;;;;9.88;6.18;;;;;;;28.12;41.14;97407.91;10295982;28;20073;-56
2022/08/18 08:31:10;;;;;;;14.35;7.57;;;;;;;28.39;41.10;97406.72;10296796;28;20826;-56
2022/08/18 08:36:24;;;;;;;7.82;5.75;;;;;;;28.63;40.35;97406.59;10294971;28;20144;-56
2022/08/18 08:41:54;;;;;;;7.47;5.57;;;;;;;28.74;38.69;97392.41;10286161;28;20471;-56
2022/08/18 08:47:09;;;;;;;9.55;5.30;;;;;;;28.92;38.58;97390.91;10282084;28;20061;-56
2022/08/18 08:52:26;;;;;;;6.88;5.55;;;;;;;29.16;38.16;97384.53;10293788;28;20069;-56
2022/08/18 08:57:31;;;;;;;8.68;5.63;;;;;;;29.27;36.50;97373.81;10293079;28;20069;-56
2022/08/18 09:03:00;;;;;;;10.00;5.85;;;;;;;29.43;35.55;97379.56;10294325;28;20066;-56
2022/08/18 09:08:02;;;;;;;7.35;5.55;;;;;;;29.65;35.25;97383.13;10294058;28;20440;-56
2022/08/18 09:13:19;;;;;;;13.45;6.15;;;;;;;29.98;35.21;97368.72;10292569;28;20077;-56
2022/08/18 09:18:43;;;;;;;7.00;5.13;;;;;;;30.11;33.78;97373.84;10293239;28;20049;-56
2022/08/18 09:23:46;;;;;;;10.77;5.32;;;;;;;30.26;31.86;97360.97;10293564;28;20065;-56
2022/08/18 09:29:12;;;;;;;8.48;5.30;;;;;;;30.42;30.53;97368.50;10293324;28;20061;-57
2022/08/18 09:34:38;;;;;;;7.82;5.22;;;;;;;30.51;30.82;97371.22;10264074;28;20077;-56
2022/08/18 09:45:30;;;;;;;7.57;5.00;;;;;;;31.11;29.79;97336.41;10288940;28;20069;-56
2022/08/18 09:50:36;;;;;;;8.95;4.93;;;;;;;30.98;29.76;97333.13;10292117;28;20147;-56
2022/08/18 09:55:41;;;;;;;7.28;5.10;;;;;;;31.22;29.57;97337.22;10293666;28;20068;-56
2022/08/18 10:00:40;;;;;;;8.23;4.85;;;;;;;31.39;28.80;97339.22;10293332;28;20088;-56
2022/08/18 10:05:54;;;;;;;9.63;5.43;;;;;;;31.43;28.39;97324.53;10291919;28;20052;-56
2022/08/18 10:11:12;;;;;;;6.45;5.20;;;;;;;31.52;28.28;97301.38;10293183;28;20058;-56
2022/08/18 10:16:20;;;;;;;6.28;4.60;;;;;;;31.47;27.73;97312.50;10272149;28;20116;-56
2022/08/18 10:21:22;;;;;;;;;;;;;;;31.55;27.45;97311.84;10262721;28;20475;-56
2022/08/18 10:26:30;;;;;;;9.55;5.03;;;;;;;31.54;27.98;97310.97;10291071;28;19940;-56
2022/08/18 10:31:30;;;;;;;;;;;;;;;31.53;28.05;97303.94;10292465;28;20069;-56
2022/08/18 10:36:38;;;;;;;10.98;5.65;;;;;;;31.86;27.01;97298.22;10292810;28;19967;-56
2022/08/18 10:41:51;;;;;;;7.35;4.68;;;;;;;32.02;27.22;97303.81;10290052;28;20058;-56
2022/08/18 10:46:52;;;;;;;5.93;4.75;;;;;;;31.98;26.14;97300.56;10290494;28;20100;-56
2022/08/18 10:51:51;;;;;;;6.88;4.78;;;;;;;32.12;25.36;97298.41;10291595;28;20069;-56
2022/08/18 10:57:02;;;;;;;6.45;4.80;;;;;;;32.28;26.26;97282.50;10289138;28;20073;-56
2022/08/18 11:02:29;;;;;;;5.72;4.38;;;;;;;32.42;25.04;97276.63;10287355;28;20133;-56
2022/08/18 11:07:30;;;;;;;12.50;5.00;;;;;;;32.47;25.26;97275.34;10287479;28;20464;-57
2022/08/18 11:12:51;;;;;;;8.38;4.45;;;;;;;32.22;25.90;97278.59;10284895;28;20069;-57
2022/08/18 11:18:08;;;;;;;6.70;5.03;;;;;;;32.00;26.55;97290.50;10286372;28;20150;-57
2022/08/18 11:23:13;;;;;;;6.05;4.65;;;;;;;32.22;26.57;97277.72;10287818;28;20073;-57
2022/08/18 11:28:18;;;;;;;6.00;5.07;;;;;;;32.50;26.11;97272.34;10289180;28;20068;-57
2022/08/18 11:33:20;;;;;;;6.22;4.20;;;;;;;32.67;25.46;97266.19;10287900;28;20069;-57
2022/08/18 11:38:19;;;;;;;8.25;4.82;;;;;;;32.51;25.83;97274.06;10287808;28;20500;-57
2022/08/18 11:43:25;;;;;;;5.28;4.78;;;;;;;32.05;26.24;97281.22;10257217;28;20070;-57
2022/08/18 11:48:27;;;;;;;5.00;4.50;;;;;;;32.04;26.36;97275.00;10247357;28;20057;-57
2022/08/18 11:53:32;;;;;;;6.75;5.00;;;;;;;32.33;26.24;97268.63;10254281;28;20070;-57
2022/08/18 11:58:40;;;;;;;6.22;4.43;;;;;;;32.68;25.55;97259.81;10255996;28;20530;-57
2022/08/18 12:03:47;;;;;;;5.55;4.57;;;;;;;32.82;24.87;97253.91;10254230;28;20058;-57
2022/08/18 12:08:49;;;;;;;;;;;;;;;32.95;24.78;97241.91;10267855;28;20499;-57
2022/08/18 12:13:58;;;;;;;5.45;4.38;;;;;;;33.21;24.79;97232.09;10294497;28;19947;-57
2022/08/18 12:18:57;;;;;;;6.47;4.30;;;;;;;33.09;24.80;97238.72;10293976;28;20057;-57
2022/08/18 12:23:56;;;;;;;5.82;4.47;;;;;;;33.20;24.74;97235.75;10294539;28;20076;-57
2022/08/18 12:28:55;;;;;;;7.43;4.13;;;;;;;33.35;24.77;97230.69;10294629;28;20077;-57
2022/08/18 12:33:54;;;;;;;5.93;4.57;;;;;;;33.48;24.61;97230.25;10293093;28;20050;-58
2022/08/18 12:38:53;;;;;;;5.80;4.47;;;;;;;33.29;24.60;97236.69;10292470;28;20041;-57
2022/08/18 12:43:52;;;;;;;5.90;4.30;;;;;;;33.49;24.40;97231.94;10269269;28;20469;-57
2022/08/18 12:48:51;;;;;;;5.00;4.25;;;;;;;33.90;25.24;97207.97;10254013;28;20089;-57
2022/08/18 12:53:51;;;;;;;6.55;4.50;;;;;;;33.91;24.24;97201.59;10251739;28;20493;-57
2022/08/18 12:58:52;;;;;;;7.72;4.32;;;;;;;33.76;24.39;97197.81;10251972;28;20534;-57
2022/08/18 13:03:54;;;;;;;6.10;4.07;;;;;;;33.67;24.03;97216.59;10251368;28;20515;-57
2022/08/18 13:08:56;;;;;;;5.88;4.28;;;;;;;33.77;24.24;97218.31;10265683;28;20066;-57
2022/08/18 13:13:55;;;;;;;6.20;5.60;;;;;;;33.83;23.40;97215.00;10291402;28;20506;-57
2022/08/18 13:18:54;;;;;;;5.00;4.30;;;;;;;33.97;24.27;97189.31;10287654;28;20080;-57
2022/08/18 13:23:53;;;;;;;7.05;3.92;;;;;;;33.90;23.64;97172.97;10252402;28;20081;-57
2022/08/18 13:28:53;;;;;;;5.30;3.92;;;;;;;33.57;23.00;97182.72;10251399;28;20042;-57
2022/08/18 13:33:53;;;;;;;4.78;3.67;;;;;;;33.57;23.33;97185.41;10250641;28;20496;-57
2022/08/18 13:38:53;;;;;;;6.32;4.00;;;;;;;33.59;22.83;97181.56;10250766;28;20464;-57
2022/08/18 13:43:52;;;;;;;4.22;3.83;;;;;;;33.81;22.80;97185.53;10272861;28;20073;-57
2022/08/18 13:48:51;;;;;;;4.20;3.65;;;;;;;33.86;22.71;97190.44;10291510;28;20825;-57
2022/08/18 13:53:50;;;;;;;4.97;4.07;;;;;;;34.05;22.62;97176.72;10290150;28;20488;-57
2022/08/18 13:58:49;;;;;;;6.60;3.88;;;;;;;34.29;22.90;97180.53;10291200;28;20065;-57
2022/08/18 14:03:48;;;;;;;6.55;3.53;;;;;;;33.91;22.35;97180.06;10290426;28;20037;-60
2022/08/18 14:08:48;;;;;;;4.63;4.00;;;;;;;34.14;22.13;97176.78;10289160;28;20465;-59
2022/08/18 14:13:47;;;;;;;4.35;3.38;;;;;;;34.04;22.26;97164.25;10289269;28;20073;-58
2022/08/18 14:26:46;;;;;;;4.88;3.53;;;;;;;33.88;22.53;97170.41;10290027;28;20100;-57
2022/08/18 14:29:23;;;;;;;7.70;3.70;;;;;;;33.90;22.29;97164.88;10289641;28;20057;-57
2022/08/18 14:34:22;;;;;;;5.95;3.97;;;;;;;34.06;22.21;97162.25;10289723;28;20050;-57
2022/08/18 14:39:21;;;;;;;5.10;3.97;;;;;;;33.79;21.97;97162.47;10288934;28;20054;-57
2022/08/18 14:44:20;;;;;;;5.75;3.88;;;;;;;33.74;22.13;97164.81;10261773;28;20045;-56
2022/08/18 14:49:20;;;;;;;5.03;3.20;;;;;;;33.76;21.36;97154.75;10249081;28;20471;-56
2022/08/18 14:54:19;;;;;;;4.80;4.00;;;;;;;33.70;21.92;97161.63;10248256;28;20081;-57
2022/08/18 14:59:18;;;;;;;5.07;3.42;;;;;;;33.60;21.02;97137.50;10248399;28;20084;-58
2022/08/18 15:04:17;;;;;;;5.75;3.78;;;;;;;33.61;21.10;97141.91;10248913;28;20076;-57
2022/08/18 15:09:16;;;;;;;9.95;4.15;;;;;;;33.54;21.00;97153.44;10265945;28;20026;-56
2022/08/18 15:14:16;;;;;;;5.03;4.05;;;;;;;33.65;21.21;97158.56;10288687;28;20555;-57
2022/08/18 15:19:15;;;;;;;8.27;5.20;;;;;;;33.67;22.17;97157.38;10282379;28;20112;-57
2022/08/18 15:29:33;;;;;;;7.28;3.80;;;;;;;33.32;22.32;97157.53;10292119;28;20113;-57
2022/08/18 15:34:33;;;;;;;5.85;3.88;;;;;;;33.25;22.42;97168.94;10294499;28;20085;-57
2022/08/18 15:39:32;;;;;;;6.65;4.10;;;;;;;33.07;22.83;97160.03;10292904;28;20511;-57
2022/08/18 15:44:31;;;;;;;7.25;4.35;;;;;;;33.10;22.48;97167.81;10266138;28;20459;-57
2022/08/18 15:49:31;;;;;;;6.78;4.88;;;;;;;33.01;23.17;97166.88;10255696;28;20030;-56
2022/08/18 15:54:30;;;;;;;5.57;4.43;;;;;;;32.78;23.31;97168.38;10254511;28;20084;-57
2022/08/18 15:59:29;;;;;;;6.95;4.53;;;;;;;32.84;22.86;97171.28;10272486;28;20034;-56
2022/08/18 16:04:28;;;;;;;6.10;4.05;;;;;;;32.76;23.60;97167.69;10289770;28;20123;-56
2022/08/18 16:09:27;;;;;;;6.00;4.32;;;;;;;32.55;23.98;97166.16;10285130;28;20052;-56
2022/08/18 16:14:26;;;;;;;7.05;4.53;;;;;;;32.57;24.04;97168.69;10290449;28;20051;-56
2022/08/18 16:19:25;;;;;;;6.28;4.97;;;;;;;32.45;24.21;97172.59;10292935;28;20034;-56
2022/08/18 16:24:24;;;;;;;7.53;4.25;;;;;;;32.28;24.72;97176.97;10293391;28;20072;-57
2022/08/18 16:29:23;;;;;;;7.13;4.80;;;;;;;32.13;25.26;97171.25;10293215;28;20062;-56
2022/08/18 16:34:25;;;;;;;5.75;4.85;;;;;;;31.86;25.73;97180.16;10292466;28;20054;-56
2022/08/18 16:39:23;;;;;;;5.97;4.97;;;;;;;31.73;26.49;97181.34;10287936;28;20503;-56
2022/08/18 16:44:23;;;;;;;5.95;5.07;;;;;;;31.63;26.63;97187.72;10269141;28;20041;-56
2022/08/18 16:49:22;;;;;;;8.50;4.80;;;;;;;31.32;27.49;97196.84;10250011;28;20066;-56
2022/08/18 16:54:21;;;;;;;8.75;4.65;;;;;;;31.09;28.34;97201.69;10248897;28;20049;-56
2022/08/18 17:04:38;;;;;;;9.07;5.43;;;;;;;30.54;29.02;97204.09;10252273;28;20066;-57
2022/08/18 17:09:38;;;;;;;9.75;5.43;;;;;;;30.31;29.81;97207.00;10272149;28;20084;-56
2022/08/18 17:14:37;;;;;;;7.32;4.68;;;;;;;30.05;29.91;97208.50;10291884;28;20061;-56
2022/08/18 17:19:36;;;;;;;6.85;5.13;;;;;;;29.73;30.45;97214.81;10291745;28;20065;-56
2022/08/18 17:24:36;;;;;;;10.43;5.10;;;;;;;29.40;30.99;97216.78;10290905;28;20077;-56
2022/08/18 17:30:17;;;;;;;7.32;5.35;;;;;;;29.08;31.89;97224.84;10290705;28;20076;-56
2022/08/18 17:35:23;;;;;;;10.52;6.22;;;;;;;28.77;32.74;97222.09;10290908;28;20468;-56
2022/08/18 17:40:31;;;;;;;12.27;6.50;;;;;;;28.50;33.85;97230.56;10284783;28;20085;-56
2022/08/18 17:45:33;;;;;;;8.15;6.25;;;;;;;28.18;34.58;97236.69;10258522;28;20509;-56
2022/08/18 17:56:25;;;;;;;12.48;6.30;;;;;;;27.52;35.72;97265.91;10250421;28;20117;-57
2022/08/18 18:01:25;;;;;;;8.47;5.70;;;;;;;27.25;36.52;97268.84;10250248;28;20077;-57
2022/08/18 18:06:33;;;;;;;9.07;6.00;;;;;;;27.03;36.89;97272.31;10249724;28;20782;-56
2022/08/18 18:11:41;;;;;;;11.55;5.85;;;;;;;26.80;37.46;97276.66;10269516;28;20068;-57
2022/08/18 18:16:40;;;;;;;9.00;6.07;;;;;;;26.60;37.63;97279.94;10288703;28;20073;-57
2022/08/18 18:21:40;;;;;;;8.55;5.90;;;;;;;26.42;37.94;97290.97;10289510;28;20041;-55
2022/08/18 18:26:42;;;;;;;12.40;5.93;;;;;;;26.25;38.48;97294.00;10288533;28;20723;-55
2022/08/18 18:32:20;;;;;;;12.38;7.07;;;;;;;26.04;38.98;97313.19;10289782;28;20069;-58
2022/08/18 18:37:33;;;;;;;10.57;6.75;;;;;;;25.89;38.90;97308.94;10286218;28;20492;-55
2022/08/18 18:42:34;;;;;;;9.05;5.88;;;;;;;25.72;39.44;97312.78;10276535;28;20306;-56
2022/08/18 18:47:42;;;;;;;10.65;6.90;;;;;;;25.51;40.29;97315.06;10248281;28;20062;-55
2022/08/18 18:52:56;;;;;;;10.88;6.70;;;;;;;25.31;40.72;97314.59;10254940;28;20076;-55
2022/08/18 18:57:56;;;;;;;9.35;6.90;;;;;;;25.14;41.29;97319.38;10312798;28;20131;-57
2022/08/18 19:03:04;;;;;;;10.75;6.35;;;;;;;24.99;42.01;97321.22;10341055;28;20274;-57
2022/08/18 19:08:38;;;;;;;8.27;6.72;;;;;;;24.85;42.79;97317.66;10340825;28;20520;-56
2022/08/18 19:13:42;;;;;;;10.13;6.97;;;;;;;24.67;43.46;97314.41;10338438;28;20091;-56
2022/08/18 19:18:46;;;;;;;8.95;6.38;;;;;;;24.53;43.37;97321.56;10338341;28;20120;-55
2022/08/18 19:23:54;;;;;;;7.85;6.00;;;;;;;24.45;43.10;97314.06;10338508;28;20061;-56
2022/08/18 19:29:02;;;;;;;9.68;6.18;;;;;;;24.38;43.53;97318.94;10341142;28;20064;-56
2022/08/18 19:34:08;;;;;;;9.90;6.43;;;;;;;24.28;43.65;97318.66;10338933;28;20088;-56
2022/08/18 19:39:19;;;;;;;11.10;7.38;;;;;;;24.25;43.57;97305.59;10316678;28;20069;-57
2022/08/18 19:44:39;;;;;;;12.48;7.72;;;;;;;24.14;45.54;97309.84;10281670;28;20070;-56
2022/08/18 19:50:05;;;;;;;12.98;6.82;;;;;;;23.94;47.06;97314.63;10260491;28;20488;-56
2022/08/18 19:55:11;;;;;;;10.35;6.70;;;;;;;23.80;47.50;97306.66;10259537;28;20508;-56
2022/08/18 20:00:25;;;;;;;13.95;6.63;;;;;;;23.66;48.53;97319.91;10297023;28;20578;-56
2022/08/18 20:05:37;;;;;;;10.10;6.28;;;;;;;23.39;48.42;97316.13;10301298;28;20061;-56
2022/08/18 20:11:11;;;;;;;9.27;6.38;;;;;;;23.16;49.15;97312.22;10294063;28;20073;-56
2022/08/18 20:16:25;;;;;;;8.45;6.50;;;;;;;22.96;49.44;97304.59;10293072;28;20077;-56
2022/08/18 20:21:44;;;;;;;9.75;6.47;;;;;;;22.96;49.72;97320.47;10292278;28;20065;-57
2022/08/18 20:26:48;;;;;;;9.30;7.57;;;;;;;22.83;49.74;97307.09;10286993;28;20583;-56
2022/08/18 20:32:01;;;;;;;9.55;7.43;;;;;;;22.82;49.62;97312.50;10292478;28;20053;-56
2022/08/18 20:37:07;;;;;;;10.07;7.28;;;;;;;22.76;50.14;97314.56;10291883;28;20085;-56
2022/08/18 20:42:21;;;;;;;8.88;7.03;;;;;;;22.68;50.29;97319.38;10290820;28;20141;-56
2022/08/18 20:47:29;;;;;;;12.65;7.07;;;;;;;22.62;50.95;97305.66;10292076;28;20065;-59
2022/08/18 20:52:40;;;;;;;11.00;7.78;;;;;;;22.52;51.10;97313.25;10291312;28;20088;-56
2022/08/18 20:57:39;;;;;;;11.40;7.85;;;;;;;22.44;51.44;97316.34;10290945;28;20558;-56
2022/08/18 21:02:40;;;;;;;11.68;7.90;;;;;;;22.33;51.94;97321.38;10291076;28;20069;-57
2022/08/18 21:07:58;;;;;;;12.07;7.97;;;;;;;22.23;53.19;97328.94;10290651;28;20065;-56
2022/08/18 21:13:00;;;;;;;11.23;6.43;;;;;;;22.14;54.10;97338.22;10290994;28;20064;-56
2022/08/18 21:18:26;;;;;;;11.23;6.65;;;;;;;22.09;53.92;97339.44;10291823;28;20069;-56
2022/08/18 21:23:35;;;;;;;11.80;7.32;;;;;;;21.99;54.18;97333.75;10289139;28;20065;-56
2022/08/18 21:28:36;;;;;;;9.13;6.57;;;;;;;21.90;54.72;97329.81;10290841;28;20060;-56
2022/08/18 21:33:35;;;;;;;14.77;8.00;;;;;;;21.83;55.56;97325.78;10290936;28;20075;-56
2022/08/18 21:38:36;;;;;;;13.88;8.35;;;;;;;21.62;56.96;97325.13;10291747;28;20041;-56
2022/08/18 21:43:46;;;;;;;12.43;8.23;;;;;;;21.45;58.64;97327.78;10281804;28;20487;-56
2022/08/18 21:48:48;;;;;;;14.05;8.05;;;;;;;21.36;58.40;97326.50;10248108;28;20134;-56
2022/08/18 21:53:48;;;;;;;12.35;8.27;;;;;;;21.36;58.65;97322.97;10250588;28;20062;-56
2022/08/18 21:58:47;;;;;;;11.10;8.15;;;;;;;21.31;58.92;97329.38;10249782;28;20077;-56
2022/08/18 22:03:58;;;;;;;9.77;8.50;;;;;;;21.29;58.85;97322.47;10248900;28;20057;-56
2022/08/18 22:13:57;;;;;;;10.80;8.85;;;;;;;21.25;59.17;97320.91;10250172;28;20073;-56
2022/08/18 22:14:45;;;;;;;14.35;8.98;;;;;;;21.17;59.60;97328.31;10248497;28;20118;-56
2022/08/18 22:19:43;;;;;;;11.23;8.48;;;;;;;21.09;60.05;97321.63;10249159;28;20068;-56
2022/08/18 22:24:43;;;;;;;14.73;8.10;;;;;;;21.04;60.21;97328.94;10272730;28;20045;-56
2022/08/18 22:29:45;;;;;;;13.52;7.80;;;;;;;20.99;60.63;97320.41;10288964;28;20045;-56
2022/08/18 22:34:44;;;;;;;12.57;8.65;;;;;;;20.95;60.88;97320.63;10288599;28;20354;-56
2022/08/18 22:39:45;;;;;;;13.35;9.00;;;;;;;20.88;60.74;97317.44;10288671;28;20133;-56
2022/08/18 22:44:44;;;;;;;10.80;8.40;;;;;;;20.84;60.83;97318.50;10270342;28;20062;-56
2022/08/18 22:49:44;;;;;;;15.38;9.63;;;;;;;20.74;61.46;97312.00;10248278;28;20045;-56
2022/08/18 22:54:43;;;;;;;12.77;9.27;;;;;;;20.67;61.47;97309.66;10248336;28;20508;-56
2022/08/18 22:59:45;;;;;;;10.93;9.73;;;;;;;20.61;61.85;97304.69;10247980;28;20522;-56
2022/08/18 23:04:44;;;;;;;11.88;8.95;;;;;;;20.50;62.83;97301.72;10248298;28;20095;-56
2022/08/18 23:09:43;;;;;;;11.38;8.77;;;;;;;20.47;63.31;97296.59;10247664;28;20050;-56
2022/08/18 23:14:45;;;;;;;10.48;8.27;;;;;;;20.40;63.36;97300.44;10247864;28;20041;-56
2022/08/18 23:19:45;;;;;;;11.35;9.57;;;;;;;20.39;63.53;97296.06;10247744;28;20073;-56
2022/08/18 23:24:44;;;;;;;12.52;10.18;;;;;;;20.34;63.97;97293.66;10248051;28;20065;-56
2022/08/18 23:29:43;;;;;;;12.55;9.77;;;;;;;20.31;64.92;97292.97;10277133;28;20053;-56
2022/08/18 23:34:43;;;;;;;13.27;9.93;;;;;;;20.18;66.73;97297.94;10288089;28;20046;-56
2022/08/18 23:39:46;;;;;;;11.52;9.40;;;;;;;20.06;66.97;97292.31;10286925;28;20511;-56
2022/08/18 23:44:45;;;;;;;14.48;9.38;;;;;;;19.99;67.27;97283.00;10274426;28;20532;-56
2022/08/18 23:49:44;;;;;;;13.30;9.20;;;;;;;19.97;67.37;97284.00;10254817;28;20489;-56
2022/08/18 23:54:43;;;;;;;12.68;9.35;;;;;;;19.93;67.64;97282.41;10254313;28;20122;-56
2022/08/18 23:59:42;;;;;;;13.43;9.05;;;;;;;19.84;68.27;97281.06;10254981;28;20040;-56
